Time;durP1;ratioP1;P1;durP2;ratioP2;P2;SDS_P1;SDS_P2;PMS_P1;PMS_P2;Temp;Humidity;BMP_temperature;BMP_pressure;BME280_temperature;BME280_humidity;BME280_pressure;Samples;Min_cycle;Max_cycle;Signal;HPM_P1;HPM_P2
2021/05/07 00:00:04;;;;;;;8.05;2.90;;;;;;;16.36;47.91;99832.41;5027698;28;20041;-22
2021/05/07 00:02:30;;;;;;;5.65;2.88;;;;;;;16.15;49.21;99854.91;5026997;28;20560;-23
2021/05/07 00:04:55;;;;;;;4.72;3.00;;;;;;;16.16;49.41;99851.13;5027730;28;20049;-21
2021/05/07 00:07:21;;;;;;;5.20;2.90;;;;;;;16.48;49.00;99846.44;5027861;28;20575;-22
2021/05/07 00:09:46;;;;;;;5.30;2.55;;;;;;;16.47;49.31;99866.38;5027837;28;20042;-23
2021/05/07 00:12:12;;;;;;;4.45;2.85;;;;;;;16.21;49.87;99857.38;5027154;28;20029;-22
2021/05/07 00:14:37;;;;;;;5.30;2.70;;;;;;;16.55;49.80;99853.47;5027710;28;20456;-22
2021/05/07 00:17:03;;;;;;;11.32;2.97;;;;;;;16.62;49.10;99854.03;5028068;28;20038;-22
2021/05/07 00:19:28;;;;;;;4.45;2.88;;;;;;;16.23;50.28;99859.81;5027761;28;20025;-22
2021/05/07 00:21:53;;;;;;;4.53;2.70;;;;;;;16.24;50.51;99866.78;5027643;28;20029;-20
2021/05/07 00:24:19;;;;;;;6.97;3.00;;;;;;;16.70;48.90;99864.31;5027548;28;20087;-21
2021/05/07 00:26:44;;;;;;;6.68;3.20;;;;;;;15.70;51.68;99853.53;5027572;28;20474;-21
2021/05/07 00:29:10;;;;;;;6.32;2.90;;;;;;;15.40;52.28;99853.00;5027674;28;20354;-22
2021/05/07 00:31:35;;;;;;;8.45;3.28;;;;;;;15.67;52.09;99858.34;5027408;28;20075;-22
2021/05/07 00:34:01;;;;;;;8.23;4.07;;;;;;;16.06;51.06;99855.41;5027301;28;20524;-22
2021/05/07 00:36:26;;;;;;;7.22;3.38;;;;;;;15.91;51.72;99863.38;5027254;28;20060;-22
2021/05/07 00:38:51;;;;;;;7.03;3.75;;;;;;;15.85;51.56;99853.66;5027179;28;20037;-22
2021/05/07 00:41:17;;;;;;;6.18;3.70;;;;;;;15.69;52.37;99844.63;5027109;28;20037;-23
2021/05/07 00:43:43;;;;;;;7.82;4.07;;;;;;;16.15;51.40;99838.78;5027365;28;20378;-22
2021/05/07 00:46:08;;;;;;;7.47;4.28;;;;;;;16.54;50.05;99854.56;5027385;28;20033;-22
2021/05/07 00:48:34;;;;;;;7.18;3.97;;;;;;;16.41;50.38;99832.44;5026824;28;20037;-21
2021/05/07 00:50:59;;;;;;;8.40;4.05;;;;;;;16.68;49.37;99856.47;5009297;28;20425;-22
2021/05/07 00:53:28;;;;;;;7.75;4.38;;;;;;;16.84;49.03;99853.88;5027128;28;20067;-22
2021/05/07 00:55:53;;;;;;;8.15;4.43;;;;;;;16.15;50.73;99852.22;5026991;28;20413;-22
2021/05/07 00:58:19;;;;;;;7.25;4.40;;;;;;;15.88;52.01;99855.84;5027178;28;20030;-21
2021/05/07 01:00:45;;;;;;;6.30;4.10;;;;;;;15.76;52.01;99852.53;5025857;28;20078;-21
2021/05/07 01:03:10;;;;;;;7.63;4.00;;;;;;;15.97;51.41;99856.16;5027209;28;20025;-21
2021/05/07 01:05:36;;;;;;;7.57;4.57;;;;;;;15.82;51.85;99832.66;5027230;28;20053;-21
2021/05/07 01:08:01;;;;;;;7.22;4.35;;;;;;;15.61;52.64;99840.56;5027117;28;20821;-22
2021/05/07 01:10:27;;;;;;;6.35;4.60;;;;;;;16.23;51.11;99843.66;5026502;28;20040;-22
2021/05/07 01:12:52;;;;;;;6.88;4.38;;;;;;;16.21;50.97;99832.34;5026993;28;20033;-22
2021/05/07 01:15:26;;;;;;;7.50;4.60;;;;;;;16.22;50.80;99847.41;5030119;28;20032;-22
2021/05/07 01:17:53;;;;;;;8.98;4.43;;;;;;;16.16;50.98;99849.28;5031269;28;20057;-21
2021/05/07 01:20:20;;;;;;;7.32;4.00;;;;;;;16.18;50.70;99846.31;5031145;28;20041;-21
2021/05/07 01:22:48;;;;;;;9.15;4.05;;;;;;;15.52;51.68;99833.22;5030969;28;20052;-21
2021/05/07 01:25:15;;;;;;;8.85;5.03;;;;;;;14.76;54.20;99834.94;5031073;28;20099;-21
2021/05/07 01:27:43;;;;;;;7.55;4.78;;;;;;;14.63;54.86;99854.94;5031170;28;20111;-21
2021/05/07 01:30:11;;;;;;;9.32;5.43;;;;;;;14.96;54.75;99849.66;5030773;28;20038;-21
2021/05/07 01:32:37;;;;;;;9.40;5.35;;;;;;;14.51;55.35;99851.53;5031003;28;20485;-21
2021/05/07 01:35:07;;;;;;;8.13;5.32;;;;;;;14.34;56.16;99856.94;5030587;28;20121;-21
2021/05/07 01:37:33;;;;;;;9.05;5.50;;;;;;;13.65;57.86;99838.56;5030303;28;20033;-22
2021/05/07 01:39:58;;;;;;;10.25;6.85;;;;;;;13.68;59.01;99856.03;5030422;28;20474;-22
2021/05/07 01:42:24;;;;;;;9.55;6.47;;;;;;;14.06;57.38;99861.41;5030339;28;20037;-21
2021/05/07 01:44:49;;;;;;;8.90;6.63;;;;;;;14.56;55.87;99870.41;5030601;28;20037;-21
2021/05/07 01:47:15;;;;;;;10.73;6.32;;;;;;;14.49;56.85;99868.97;5030750;28;20907;-20
2021/05/07 01:49:40;;;;;;;11.07;7.00;;;;;;;14.92;55.28;99870.03;5030265;28;20042;-23
2021/05/07 01:52:06;;;;;;;10.93;6.63;;;;;;;14.77;55.40;99874.16;5028809;28;20029;-22
2021/05/07 01:54:31;;;;;;;9.85;6.75;;;;;;;14.95;54.84;99880.25;5030176;28;20041;-22
2021/05/07 01:56:56;;;;;;;9.50;6.95;;;;;;;14.41;56.62;99873.69;5030292;28;20409;-23
2021/05/07 01:59:22;;;;;;;9.48;6.20;;;;;;;14.01;57.52;99861.34;5030305;28;20044;-22
2021/05/07 02:01:47;;;;;;;10.35;6.72;;;;;;;14.26;56.81;99855.53;5030229;28;20037;-22
2021/05/07 02:04:13;;;;;;;10.75;6.22;;;;;;;14.59;56.00;99866.44;5029888;28;20056;-22
2021/05/07 02:06:38;;;;;;;10.13;7.03;;;;;;;14.41;56.39;99880.94;5029988;28;20049;-22
2021/05/07 02:09:04;;;;;;;9.35;6.55;;;;;;;14.12;56.63;99869.53;5030286;28;20033;-22
2021/05/07 02:11:29;;;;;;;9.82;6.53;;;;;;;14.47;56.43;99871.88;5030111;28;20029;-22
2021/05/07 02:13:55;;;;;;;9.38;6.50;;;;;;;14.75;55.01;99872.78;5029900;28;20025;-21
2021/05/07 02:16:20;;;;;;;11.20;6.93;;;;;;;15.12;53.89;99872.91;5029729;28;20031;-20
2021/05/07 02:18:46;;;;;;;9.20;6.53;;;;;;;14.52;55.28;99869.25;5030315;28;20787;-22
2021/05/07 02:21:11;;;;;;;11.95;6.47;;;;;;;14.00;57.48;99875.00;5029900;28;20029;-22
2021/05/07 02:23:37;;;;;;;11.32;6.60;;;;;;;14.07;57.13;99854.19;5029986;28;20029;-22
2021/05/07 02:26:03;;;;;;;12.20;6.50;;;;;;;14.00;57.04;99861.59;5029279;28;20037;-22
2021/05/07 02:28:28;;;;;;;8.90;5.88;;;;;;;13.52;58.87;99871.84;5029517;28;20033;-22
2021/05/07 02:30:54;;;;;;;8.68;6.03;;;;;;;13.24;59.44;99873.50;5029482;28;20029;-22
2021/05/07 02:33:19;;;;;;;62.55;8.82;;;;;;;12.59;61.19;99873.88;5029558;28;20032;-22
2021/05/07 02:35:44;;;;;;;8.35;6.00;;;;;;;12.14;62.15;99882.56;5029255;28;20033;-22
2021/05/07 02:38:10;;;;;;;9.98;5.40;;;;;;;11.80;63.72;99898.31;5029246;28;20037;-20
2021/05/07 02:40:35;;;;;;;8.43;5.10;;;;;;;11.33;65.48;99892.88;5029526;28;20559;-22
2021/05/07 02:43:01;;;;;;;8.50;4.68;;;;;;;11.10;66.05;99873.06;5029329;28;20030;-22
2021/05/07 02:45:26;;;;;;;10.57;4.93;;;;;;;11.59;64.90;99895.13;5029249;28;20029;-22
2021/05/07 02:47:52;;;;;;;8.45;5.32;;;;;;;12.46;62.22;99893.66;5029319;28;20033;-22
2021/05/07 02:50:17;;;;;;;8.43;5.68;;;;;;;12.75;61.38;99891.03;5028695;28;20433;-21
2021/05/07 02:52:44;;;;;;;8.23;5.45;;;;;;;12.21;63.29;99888.56;5029264;28;20032;-21
2021/05/07 02:55:10;;;;;;;9.27;5.35;;;;;;;11.85;63.95;99882.41;5029508;28;20607;-20
2021/05/07 02:57:35;;;;;;;8.18;5.35;;;;;;;12.14;62.80;99877.22;5029378;28;20057;-22
2021/05/07 03:00:01;;;;;;;12.52;5.45;;;;;;;11.90;63.70;99898.56;5029096;28;20039;-22
2021/05/07 03:02:26;;;;;;;14.05;5.85;;;;;;;12.26;62.46;99883.34;5028763;28;20469;-22
2021/05/07 03:04:52;;;;;;;9.10;5.82;;;;;;;12.89;59.96;99864.81;5028790;28;20040;-23
2021/05/07 03:07:17;;;;;;;11.48;5.78;;;;;;;13.37;57.83;99890.34;5028747;28;20498;-23
2021/05/07 03:09:43;;;;;;;8.73;5.15;;;;;;;13.07;59.16;99894.06;5028924;28;20056;-22
2021/05/07 03:12:08;;;;;;;9.13;5.70;;;;;;;13.43;58.00;99897.41;5028801;28;20551;-22
2021/05/07 03:14:34;;;;;;;9.10;5.53;;;;;;;12.85;59.53;99894.75;5028612;28;20032;-22
2021/05/07 03:16:59;;;;;;;8.98;5.18;;;;;;;12.26;61.91;99894.06;5028612;28;20056;-22
2021/05/07 03:19:25;;;;;;;9.75;5.10;;;;;;;12.20;61.99;99897.66;5028585;28;20036;-22
2021/05/07 03:21:50;;;;;;;8.20;5.38;;;;;;;12.37;61.07;99898.56;5028596;28;20045;-23
2021/05/07 03:24:16;;;;;;;8.98;5.35;;;;;;;12.43;61.41;99908.31;5028610;28;20091;-22
2021/05/07 03:26:41;;;;;;;9.35;5.55;;;;;;;12.28;62.29;99902.66;5028661;28;20032;-20
2021/05/07 03:29:07;;;;;;;11.00;5.90;;;;;;;11.90;62.75;99889.75;5028524;28;20091;-21
2021/05/07 03:31:34;;;;;;;8.00;5.15;;;;;;;11.70;63.26;99879.38;5027667;28;20065;-22
2021/05/07 03:34:00;;;;;;;11.18;6.35;;;;;;;12.04;62.55;99905.31;5027504;28;20030;-21
2021/05/07 03:36:26;;;;;;;7.38;5.30;;;;;;;11.98;62.38;99900.91;5026239;28;20231;-22
2021/05/07 03:38:51;;;;;;;10.18;5.03;;;;;;;12.20;62.09;99909.16;5027588;28;20112;-23
2021/05/07 03:41:16;;;;;;;10.10;5.43;;;;;;;11.98;62.66;99902.78;5027066;28;20033;-22
2021/05/07 03:43:42;;;;;;;9.60;5.72;;;;;;;12.06;62.28;99924.59;5027192;28;20079;-22
2021/05/07 03:46:07;;;;;;;7.75;5.78;;;;;;;11.83;62.68;99908.53;5028119;28;20030;-23
2021/05/07 03:48:33;;;;;;;12.63;6.20;;;;;;;12.10;62.40;99924.16;5030599;28;20087;-22
2021/05/07 03:50:58;;;;;;;9.25;6.00;;;;;;;12.15;61.97;99916.25;5028137;28;20057;-23
2021/05/07 03:53:24;;;;;;;8.10;5.32;;;;;;;12.26;61.53;99923.47;5028021;28;20021;-22
2021/05/07 03:55:50;;;;;;;8.07;5.53;;;;;;;12.58;60.68;99921.19;5028024;28;20037;-22
2021/05/07 03:58:15;;;;;;;10.50;5.47;;;;;;;12.79;60.10;99926.97;5027700;28;20104;-23
2021/05/07 04:00:41;;;;;;;8.30;5.63;;;;;;;12.62;60.96;99902.81;5027894;28;20108;-23
2021/05/07 04:03:06;;;;;;;9.55;5.72;;;;;;;12.27;61.79;99898.34;5027639;28;20033;-22
2021/05/07 04:05:32;;;;;;;10.75;5.63;;;;;;;12.30;62.06;99900.56;5027763;28;20036;-22
2021/05/07 04:10:42;;;;;;;9.63;5.50;;;;;;;12.12;63.29;99917.53;5027964;28;20033;-22
2021/05/07 04:15:33;;;;;;;11.05;6.00;;;;;;;12.43;62.25;99919.00;5027626;28;20033;-22
2021/05/07 04:17:58;;;;;;;8.85;5.43;;;;;;;13.01;60.52;99940.53;5027535;28;20033;-22
2021/05/07 04:20:24;;;;;;;10.60;6.05;;;;;;;12.80;61.35;99940.13;5027427;28;20025;-22
2021/05/07 04:22:49;;;;;;;11.45;6.32;;;;;;;12.86;61.04;99941.03;5027579;28;20064;-22
2021/05/07 04:25:15;;;;;;;8.50;5.80;;;;;;;13.50;59.61;99948.97;5027558;28;20033;-23
2021/05/07 04:27:40;;;;;;;10.82;6.13;;;;;;;14.15;58.44;99944.13;5028065;28;20505;-22
2021/05/07 04:30:07;;;;;;;11.05;6.65;;;;;;;14.42;57.27;99939.69;5027383;28;20048;-23
2021/05/07 04:32:32;;;;;;;15.10;7.18;;;;;;;14.80;58.00;99946.13;5026808;28;20449;-22
2021/05/07 04:34:58;;;;;;;12.30;6.22;;;;;;;14.84;58.13;99958.00;5027499;28;20084;-22
2021/05/07 04:37:23;;;;;;;14.20;6.50;;;;;;;15.18;56.83;99952.50;5027719;28;20508;-22
2021/05/07 04:39:48;;;;;;;12.70;7.57;;;;;;;15.29;56.53;99949.91;5027656;28;20033;-21
2021/05/07 04:42:14;;;;;;;14.88;10.50;;;;;;;15.46;56.58;99951.41;5027243;28;20033;-23
2021/05/07 04:44:41;;;;;;;15.07;12.57;;;;;;;15.75;56.08;99956.56;5027363;28;20040;-23
2021/05/07 04:47:07;;;;;;;11.20;8.88;;;;;;;15.99;55.13;99951.63;5027109;28;20040;-23
2021/05/07 04:49:33;;;;;;;10.30;7.03;;;;;;;15.96;55.07;99945.97;5026790;28;20057;-22
2021/05/07 04:51:58;;;;;;;14.20;6.72;;;;;;;15.86;55.90;99952.09;5027333;28;20032;-22
2021/05/07 04:54:25;;;;;;;9.98;6.20;;;;;;;15.96;55.34;99957.53;5026900;28;20457;-23
2021/05/07 04:56:51;;;;;;;8.80;5.78;;;;;;;15.95;55.52;99953.22;5027226;28;20486;-23
2021/05/07 04:59:16;;;;;;;8.50;5.63;;;;;;;15.90;55.78;99974.72;5027238;28;20042;-22
2021/05/07 05:01:42;;;;;;;12.60;6.05;;;;;;;16.01;56.12;99968.31;5026796;28;20038;-22
2021/05/07 05:04:07;;;;;;;7.55;5.47;;;;;;;15.99;55.61;99970.47;5026911;28;20041;-23
2021/05/07 05:06:32;;;;;;;9.98;6.22;;;;;;;16.39;54.72;99966.44;5026566;28;20040;-22
2021/05/07 05:08:58;;;;;;;7.68;5.22;;;;;;;16.44;54.82;99971.84;5027113;28;20033;-23
2021/05/07 05:11:23;;;;;;;8.70;5.55;;;;;;;16.40;54.93;99962.69;5027095;28;20029;-21
2021/05/07 05:13:49;;;;;;;12.05;6.47;;;;;;;16.62;55.76;99976.00;5025462;28;20029;-22
2021/05/07 05:16:14;;;;;;;7.95;5.75;;;;;;;16.55;56.01;99974.59;5026731;28;20556;-21
2021/05/07 05:18:40;;;;;;;8.60;5.47;;;;;;;16.87;54.32;99985.31;5027132;28;20040;-21
2021/05/07 05:21:06;;;;;;;12.15;5.95;;;;;;;16.90;53.96;99971.34;5027170;28;20048;-23
2021/05/07 05:23:32;;;;;;;9.05;5.30;;;;;;;17.18;52.98;99982.72;5027408;28;20132;-22
2021/05/07 05:25:57;;;;;;;9.57;5.07;;;;;;;17.59;52.33;99980.13;5026858;28;20418;-23
2021/05/07 05:28:23;;;;;;;9.93;5.25;;;;;;;17.78;50.55;99958.88;5026584;28;20033;-22
2021/05/07 05:30:48;;;;;;;8.27;4.97;;;;;;;17.61;51.13;99991.47;5026739;28;20026;-22
2021/05/07 05:33:14;;;;;;;7.65;5.25;;;;;;;17.54;52.24;99978.25;5026736;28;20474;-22
2021/05/07 05:35:39;;;;;;;6.85;4.75;;;;;;;17.86;50.16;99972.66;5026883;28;20121;-23
2021/05/07 05:38:05;;;;;;;7.10;4.78;;;;;;;17.64;50.11;99975.56;5026993;28;20068;-23
2021/05/07 05:40:31;;;;;;;11.32;5.72;;;;;;;17.61;50.16;99959.09;5026402;28;20413;-22
2021/05/07 05:42:56;;;;;;;8.48;5.30;;;;;;;17.82;50.38;99946.47;5026661;28;20034;-22
2021/05/07 05:45:24;;;;;;;8.55;5.25;;;;;;;18.10;50.01;99971.28;5026515;28;20501;-23
2021/05/07 05:48:14;;;;;;;11.13;5.73;;;;;;;18.33;49.45;99949.13;5026772;28;20030;-23
2021/05/07 05:50:46;;;;;;;8.43;5.80;;;;;;;18.18;49.59;99968.03;5026483;28;20299;-22
2021/05/07 05:53:12;;;;;;;11.02;5.80;;;;;;;18.07;49.79;99967.25;5026640;28;20034;-22
2021/05/07 05:55:37;;;;;;;9.38;5.00;;;;;;;18.02;48.95;99973.47;5026352;28;20040;-22
2021/05/07 05:58:04;;;;;;;9.57;5.75;;;;;;;17.95;50.13;99975.63;5026381;28;20025;-21
2021/05/07 06:00:29;;;;;;;7.20;5.07;;;;;;;17.95;50.35;99981.00;5028232;28;20038;-22
2021/05/07 06:02:55;;;;;;;8.77;4.88;;;;;;;18.11;50.40;99981.03;5030056;28;20084;-21
2021/05/07 06:05:20;;;;;;;9.35;4.63;;;;;;;18.09;49.69;99986.69;5030473;28;20095;-22
2021/05/07 06:07:46;;;;;;;8.32;5.03;;;;;;;18.48;49.22;99989.59;5030151;28;20033;-22
2021/05/07 06:10:12;;;;;;;6.97;4.40;;;;;;;18.73;46.97;99973.59;5029753;28;20029;-21
2021/05/07 06:12:38;;;;;;;8.40;4.57;;;;;;;19.00;47.50;99979.50;5029827;28;20492;-22
2021/05/07 06:15:07;;;;;;;7.90;4.35;;;;;;;18.99;46.83;99982.47;5030170;28;20512;-22
2021/05/07 06:17:33;;;;;;;14.63;4.97;;;;;;;19.22;46.44;99975.59;5030032;28;20029;-22
2021/05/07 06:20:02;;;;;;;7.10;3.65;;;;;;;19.03;44.66;99967.31;5029971;28;20029;-22
2021/05/07 06:22:28;;;;;;;6.85;3.65;;;;;;;19.24;45.42;99979.63;5029475;28;20037;-21
2021/05/07 06:24:54;;;;;;;7.15;4.32;;;;;;;19.55;44.24;99968.63;5029529;28;20057;-22
2021/05/07 06:27:19;;;;;;;8.88;4.88;;;;;;;19.38;43.74;99968.19;5028466;28;20040;-21
2021/05/07 06:29:45;;;;;;;9.57;3.88;;;;;;;19.20;44.63;99977.75;5029763;28;20025;-21
2021/05/07 06:32:10;;;;;;;7.60;4.65;;;;;;;19.04;46.43;99975.16;5030088;28;20056;-21
2021/05/07 06:34:36;;;;;;;8.60;4.85;;;;;;;19.07;45.61;99985.38;5029824;28;20140;-21
2021/05/07 06:37:01;;;;;;;7.65;4.15;;;;;;;18.89;45.19;99977.09;5029611;28;20822;-22
2021/05/07 06:39:29;;;;;;;7.72;4.22;;;;;;;19.04;45.66;99969.75;5029322;28;20034;-22
2021/05/07 06:41:57;;;;;;;8.70;4.28;;;;;;;19.23;44.21;99961.00;5029550;28;20029;-22
2021/05/07 06:44:23;;;;;;;6.95;4.07;;;;;;;19.81;44.65;99955.75;5029532;28;20884;-23
2021/05/07 06:46:48;;;;;;;6.72;4.05;;;;;;;20.18;44.01;99962.47;5029361;28;20029;-21
2021/05/07 06:49:13;;;;;;;10.15;5.32;;;;;;;20.35;43.16;99970.19;5029060;28;20425;-22
2021/05/07 06:51:40;;;;;;;16.20;6.90;;;;;;;19.89;44.62;99967.88;5029050;28;20041;-22
2021/05/07 06:54:08;;;;;;;11.10;6.00;;;;;;;19.57;48.14;99988.09;5028891;28;20125;-21
2021/05/07 06:56:33;;;;;;;10.32;6.15;;;;;;;19.32;50.03;99982.84;5028978;28;20029;-21
2021/05/07 06:58:59;;;;;;;9.52;5.70;;;;;;;19.39;47.37;99991.44;5029268;28;20052;-22
2021/05/07 07:01:24;;;;;;;9.07;5.50;;;;;;;19.71;47.04;99992.91;5029347;28;20401;-21
2021/05/07 07:03:50;;;;;;;9.45;5.75;;;;;;;19.41;48.47;99989.25;5028834;28;20103;-22
2021/05/07 07:06:15;;;;;;;9.95;5.53;;;;;;;19.50;48.68;99990.31;5028853;28;20033;-22
2021/05/07 07:08:41;;;;;;;8.48;5.75;;;;;;;19.70;47.12;99993.97;5028893;28;20045;-21
2021/05/07 07:11:06;;;;;;;10.52;6.35;;;;;;;19.70;46.87;99980.44;5028645;28;20029;-22
2021/05/07 07:13:31;;;;;;;9.68;6.72;;;;;;;19.31;47.69;99979.34;5028863;28;20037;-21
2021/05/07 07:15:57;;;;;;;9.05;6.80;;;;;;;19.64;47.23;99956.13;5028756;28;20045;-21
2021/05/07 07:18:22;;;;;;;11.30;7.20;;;;;;;20.52;45.98;99941.84;5028778;28;20045;-21
2021/05/07 07:20:48;;;;;;;10.35;7.35;;;;;;;21.01;43.96;99960.50;5029011;28;20828;-21
2021/05/07 07:23:14;;;;;;;10.68;7.07;;;;;;;21.06;44.99;99962.34;5028673;28;20957;-22
2021/05/07 07:25:40;;;;;;;13.20;6.65;;;;;;;20.67;44.60;99966.06;5028723;28;20087;-22
2021/05/07 07:28:06;;;;;;;9.85;6.78;;;;;;;20.52;45.23;99941.84;5028589;28;20108;-21
2021/05/07 07:30:31;;;;;;;14.90;7.90;;;;;;;20.96;45.20;99957.84;5028322;28;20021;-22
2021/05/07 07:32:57;;;;;;;9.52;6.50;;;;;;;21.13;45.27;99960.09;5028375;28;20505;-22
2021/05/07 07:35:22;;;;;;;13.85;6.93;;;;;;;21.34;43.54;99957.88;5028498;28;20033;-21
2021/05/07 07:37:48;;;;;;;9.45;6.90;;;;;;;21.25;44.12;99955.03;5028328;28;20037;-22
2021/05/07 07:40:13;;;;;;;11.23;6.80;;;;;;;21.76;44.12;99958.09;5028005;28;20029;-21
2021/05/07 07:42:40;;;;;;;9.25;5.72;;;;;;;21.88;42.28;99953.00;5028646;28;20021;-22
2021/05/07 07:45:06;;;;;;;8.40;5.93;;;;;;;22.01;43.40;99954.97;5028456;28;20060;-21
2021/05/07 07:47:32;;;;;;;10.43;5.75;;;;;;;21.57;42.82;99961.63;5028437;28;20486;-22
2021/05/07 07:49:58;;;;;;;10.38;5.70;;;;;;;22.14;42.48;99947.16;5028321;28;20065;-21
2021/05/07 07:52:23;;;;;;;10.63;4.63;;;;;;;22.16;41.52;99955.81;5027837;28;20429;-21
2021/05/07 07:54:49;;;;;;;7.40;4.60;;;;;;;22.13;42.32;99950.97;5028170;28;20405;-21
2021/05/07 07:57:14;;;;;;;8.63;4.95;;;;;;;22.12;41.53;99943.94;5028234;28;20030;-20
2021/05/07 07:59:40;;;;;;;8.88;5.60;;;;;;;22.03;42.76;99951.97;5028590;28;20505;-20
2021/05/07 08:02:05;;;;;;;9.43;4.72;;;;;;;22.02;41.02;99934.84;5028148;28;20032;-21
2021/05/07 08:04:31;;;;;;;9.75;4.50;;;;;;;22.34;41.87;99935.94;5027836;28;20029;-22
2021/05/07 08:06:56;;;;;;;14.93;7.38;;;;;;;22.18;41.36;99926.44;5027770;28;20029;-21
2021/05/07 08:09:22;;;;;;;12.00;5.30;;;;;;;22.35;42.42;99925.88;5027913;28;20057;-21
2021/05/07 08:11:47;;;;;;;11.77;5.43;;;;;;;22.04;41.70;99920.97;5028045;28;20490;-21
2021/05/07 08:14:13;;;;;;;12.13;6.38;;;;;;;22.13;42.40;99918.38;5027610;28;20402;-21
2021/05/07 08:16:38;;;;;;;9.35;5.30;;;;;;;22.26;41.06;99918.41;5027493;28;20026;-21
2021/05/07 08:19:04;;;;;;;15.43;6.32;;;;;;;22.44;41.70;99919.44;5027633;28;20034;-21
2021/05/07 08:21:29;;;;;;;8.98;5.05;;;;;;;22.61;41.81;99907.16;5027680;28;20033;-21
2021/05/07 08:23:58;;;;;;;7.43;4.22;;;;;;;22.12;41.47;99911.34;5027380;28;20029;-21
2021/05/07 08:26:23;;;;;;;9.32;4.95;;;;;;;21.97;42.54;99910.50;5027454;28;20037;-21
2021/05/07 08:28:48;;;;;;;9.20;5.38;;;;;;;22.37;41.75;99916.34;5027505;28;20037;-21
2021/05/07 08:31:14;;;;;;;12.00;4.10;;;;;;;22.36;41.11;99900.34;5027447;28;20398;-22
2021/05/07 08:33:39;;;;;;;7.38;4.13;;;;;;;23.09;41.46;99912.16;5027347;28;20063;-21
2021/05/07 08:36:05;;;;;;;7.57;4.38;;;;;;;23.49;39.65;99914.25;5027367;28;20056;-20
2021/05/07 08:38:30;;;;;;;9.57;4.43;;;;;;;24.08;38.90;99900.53;5027573;28;20743;-20
2021/05/07 08:40:56;;;;;;;9.07;4.40;;;;;;;24.06;37.84;99919.91;5027748;28;20867;-21
2021/05/07 08:43:22;;;;;;;7.00;4.60;;;;;;;24.24;38.06;99897.06;5027321;28;20033;-21
2021/05/07 08:45:47;;;;;;;6.72;4.13;;;;;;;24.84;37.66;99898.38;5027728;28;20509;-22
2021/05/07 08:48:12;;;;;;;11.93;5.38;;;;;;;24.53;38.84;99873.16;5026974;28;20037;-22
2021/05/07 08:50:38;;;;;;;6.93;4.60;;;;;;;24.52;37.29;99858.72;5009282;28;20057;-21
2021/05/07 08:53:04;;;;;;;7.20;4.20;;;;;;;23.82;39.09;99872.06;5025703;28;20029;-21
2021/05/07 08:55:29;;;;;;;7.05;4.90;;;;;;;23.29;41.17;99863.81;5026110;28;20490;-21
2021/05/07 08:57:55;;;;;;;8.32;4.70;;;;;;;23.64;39.87;99857.50;5027427;28;20033;-21
2021/05/07 09:00:21;;;;;;;9.35;4.22;;;;;;;24.11;38.25;99856.31;5026817;28;20464;-21
2021/05/07 09:02:46;;;;;;;6.75;4.43;;;;;;;24.58;38.31;99859.38;5027135;28;20029;-21
2021/05/07 09:05:12;;;;;;;7.20;3.80;;;;;;;25.19;37.77;99865.69;5027131;28;20060;-21
2021/05/07 09:07:39;;;;;;;7.35;3.85;;;;;;;25.75;37.25;99865.00;5027034;28;20057;-21
2021/05/07 09:10:06;;;;;;;7.65;4.18;;;;;;;25.03;37.45;99856.41;5027146;28;20043;-21
2021/05/07 09:12:35;;;;;;;9.57;4.45;;;;;;;24.61;39.52;99840.44;5026746;28;20113;-21
2021/05/07 09:15:01;;;;;;;8.25;4.05;;;;;;;24.62;38.49;99852.97;5026980;28;20156;-21
2021/05/07 09:17:28;;;;;;;7.82;4.40;;;;;;;24.59;38.69;99831.78;5027264;28;20068;-21
2021/05/07 09:20:07;;;;;;;8.13;4.53;;;;;;;24.51;38.69;99831.78;5026930;28;20026;-22
2021/05/07 09:22:33;;;;;;;13.80;4.75;;;;;;;24.59;38.87;99841.91;5026766;28;20041;-21
2021/05/07 09:25:28;;;;;;;7.13;3.67;;;;;;;24.76;37.87;99849.28;5026849;28;20061;-22
2021/05/07 09:27:54;;;;;;;5.63;3.97;;;;;;;25.52;37.56;99848.84;5026442;28;20068;-21
2021/05/07 09:30:29;;;;;;;6.80;3.80;;;;;;;25.23;38.59;99842.13;5008887;28;20041;-20
2021/05/07 09:32:54;;;;;;;6.60;4.18;;;;;;;24.87;37.57;99831.50;5026847;28;20018;-21
2021/05/07 09:35:20;;;;;;;8.10;4.15;;;;;;;25.32;37.63;99824.94;5028599;28;20041;-21
2021/05/07 09:37:46;;;;;;;7.80;4.07;;;;;;;25.17;37.49;99824.28;5030782;28;20040;-21
2021/05/07 09:40:19;;;;;;;6.70;3.75;;;;;;;25.79;35.78;99844.09;5030327;28;20037;-21
2021/05/07 09:42:45;;;;;;;7.03;3.30;;;;;;;26.30;34.18;99834.09;5030631;28;20032;-20
2021/05/07 09:45:26;;;;;;;7.00;3.80;;;;;;;26.34;35.33;99821.38;5030376;28;20030;-21
2021/05/07 09:47:51;;;;;;;7.20;3.50;;;;;;;26.01;36.73;99811.09;5030547;28;20486;-20
2021/05/07 09:50:19;;;;;;;12.32;3.90;;;;;;;25.85;36.63;99807.28;5030102;28;20115;-20
2021/05/07 09:52:48;;;;;;;6.90;3.47;;;;;;;26.36;36.08;99812.84;5030305;28;20033;-20
2021/05/07 09:55:14;;;;;;;7.88;4.00;;;;;;;25.88;36.17;99792.16;5030153;28;20108;-21
2021/05/07 09:57:39;;;;;;;8.65;3.95;;;;;;;25.11;38.13;99806.47;5030109;28;20087;-20
2021/05/07 10:00:06;;;;;;;9.45;3.88;;;;;;;25.11;37.52;99809.22;5029150;28;20452;-20
2021/05/07 10:02:32;;;;;;;7.97;4.18;;;;;;;25.08;36.93;99777.09;5030102;28;20040;-21
2021/05/07 10:05:00;;;;;;;6.32;3.30;;;;;;;25.28;37.26;99788.50;5029261;28;20038;-20
2021/05/07 10:07:27;;;;;;;8.38;3.85;;;;;;;25.66;36.74;99775.72;5030134;28;20497;-21
2021/05/07 10:10:01;;;;;;;6.87;3.50;;;;;;;25.85;36.85;99761.63;5030103;28;20079;-20
2021/05/07 10:12:26;;;;;;;6.85;3.72;;;;;;;26.14;36.54;99764.75;5028694;28;20037;-21
2021/05/07 10:14:52;;;;;;;5.97;3.50;;;;;;;25.85;37.17;99780.75;5028709;28;20076;-21
2021/05/07 10:17:17;;;;;;;8.15;3.60;;;;;;;26.09;35.81;99773.13;5028669;28;20041;-21
2021/05/07 10:19:43;;;;;;;5.75;3.42;;;;;;;26.58;34.17;99754.31;5029771;28;20033;-21
2021/05/07 10:22:11;;;;;;;6.07;3.30;;;;;;;26.53;33.54;99774.44;5029690;28;20029;-20
2021/05/07 10:24:36;;;;;;;6.28;3.47;;;;;;;26.71;34.31;99766.16;5029512;28;20038;-21
2021/05/07 10:27:13;;;;;;;7.07;3.40;;;;;;;26.03;34.68;99756.09;5029975;28;20127;-20
2021/05/07 10:29:39;;;;;;;7.93;3.80;;;;;;;26.04;35.18;99758.50;5029975;28;20043;-21
2021/05/07 10:32:04;;;;;;;7.80;3.75;;;;;;;26.60;34.89;99757.53;5028586;28;20029;-21
2021/05/07 10:34:30;;;;;;;7.85;3.50;;;;;;;26.51;34.65;99737.63;5029410;28;20029;-21
2021/05/07 10:36:57;;;;;;;5.97;3.40;;;;;;;26.81;34.72;99727.44;5011732;28;20037;-21
2021/05/07 10:39:27;;;;;;;7.50;3.10;;;;;;;27.12;32.60;99740.66;5029522;28;20025;-21
2021/05/07 10:41:53;;;;;;;6.68;2.92;;;;;;;26.93;33.88;99745.81;5029400;28;20036;-21
2021/05/07 10:44:23;;;;;;;5.30;2.60;;;;;;;27.08;32.63;99745.19;5029230;28;20026;-21
2021/05/07 10:46:58;;;;;;;5.25;2.97;;;;;;;27.27;32.11;99741.16;5028908;28;20044;-21
2021/05/07 10:49:36;;;;;;;6.70;2.45;;;;;;;27.22;31.77;99732.00;5029510;28;20096;-21
2021/05/07 10:52:02;;;;;;;4.88;2.88;;;;;;;26.84;32.71;99730.28;5029382;28;20144;-21
2021/05/07 10:54:39;;;;;;;8.35;3.78;;;;;;;26.57;33.67;99736.31;5029081;28;20032;-21
2021/05/07 10:57:18;;;;;;;6.60;3.05;;;;;;;26.25;34.70;99750.38;5029334;28;20068;-21
2021/05/07 11:00:01;;;;;;;6.30;3.00;;;;;;;25.99;35.67;99750.53;5027995;28;20497;-21
2021/05/07 11:02:27;;;;;;;8.05;3.55;;;;;;;25.98;36.91;99748.91;5029020;28;20038;-21
2021/05/07 11:04:52;;;;;;;12.13;5.22;;;;;;;25.83;37.04;99724.88;5028978;28;20092;-21
2021/05/07 11:07:32;;;;;;;12.10;5.05;;;;;;;26.16;36.16;99721.50;5028880;28;20028;-20
2021/05/07 11:10:05;;;;;;;6.10;3.08;;;;;;;25.83;36.16;99730.31;5029107;28;20030;-21
2021/05/07 11:12:30;;;;;;;5.05;3.10;;;;;;;25.50;36.48;99728.22;5029037;28;20032;-21
2021/05/07 11:14:56;;;;;;;5.70;2.97;;;;;;;25.82;36.82;99712.31;5029051;28;20033;-21
2021/05/07 11:17:22;;;;;;;5.22;2.97;;;;;;;26.17;35.90;99715.66;5028807;28;20394;-21
2021/05/07 11:19:47;;;;;;;7.93;3.30;;;;;;;26.35;35.38;99716.34;5028705;28;20112;-22
2021/05/07 11:22:13;;;;;;;6.65;3.00;;;;;;;26.48;36.63;99706.31;5028429;28;20029;-21
2021/05/07 11:24:40;;;;;;;7.55;3.20;;;;;;;26.67;35.87;99699.56;5028540;28;20033;-21
2021/05/07 11:27:23;;;;;;;6.47;3.20;;;;;;;26.41;35.72;99690.41;5028418;28;20049;-21
2021/05/07 11:29:52;;;;;;;5.40;3.10;;;;;;;26.17;37.39;99673.88;5028785;28;20052;-21
2021/05/07 11:32:18;;;;;;;5.88;3.35;;;;;;;25.60;37.72;99677.91;5028154;28;20500;-21